﻿<?xml version="1.0" encoding="UTF-8" standalone="no" ?>
<gpx xmlns="http://www.topografix.com/GPX/1/1" creator="CompeGPS" version="1.1" xmlns:xsi="http://www.w3.org/2001/XMLSchema-instance" xsi:schemaLocation="http://www.topografix.com/GPX/1/1 http://www.topografix.com/GPX/1/1/gpx.xsd http://www.garmin.com/xmlschemas/GpxExtensions/v3 http://www.garmin.com/xmlschemas/GpxExtensionsv3.xsd http://www.garmin.com/xmlschemas/TrackPointExtension/v1 http://www.garmin.com/xmlschemas/TrackPointExtensionv1.xsd" xmlns:gpxtpx="http://www.garmin.com/xmlschemas/TrackPointExtension/v1">
  <metadata>
    <link href="http://www.compegps.com">
      <text>CompeGPS TEAM, SL</text>
    </link>
    <time>2019-12-08T10:02:30Z</time>
    <bounds maxlat="42.814915" maxlon="0.669889" minlat="42.806604" minlon="0.616473"/>
  </metadata>
  <trk>
    <name>tuc_de_bidur</name>
    <userMyTwoNav></userMyTwoNav>
    <serialNumber></serialNumber>
    <trkseg>
      <trkpt lat="42.811496" lon="0.616473">
        <ele>933.5</ele>
        <time>2019-11-24T14:39:43Z</time>
      </trkpt>
      <trkpt lat="42.811429" lon="0.616552">
        <ele>952.1</ele>
        <time>2019-11-24T14:40:49Z</time>
      </trkpt>
      <trkpt lat="42.811364" lon="0.616648">
        <ele>952.2</ele>
        <time>2019-11-24T14:40:59Z</time>
      </trkpt>
      <trkpt lat="42.811314" lon="0.616763">
        <ele>952.2</ele>
        <time>2019-11-24T14:41:08Z</time>
      </trkpt>
      <trkpt lat="42.811267" lon="0.616872">
        <ele>952.2</ele>
        <time>2019-11-24T14:41:16Z</time>
      </trkpt>
      <trkpt lat="42.811238" lon="0.617002">
        <ele>952.9</ele>
        <time>2019-11-24T14:41:24Z</time>
      </trkpt>
      <trkpt lat="42.811192" lon="0.617118">
        <ele>953.8</ele>
        <time>2019-11-24T14:41:31Z</time>
      </trkpt>
      <trkpt lat="42.811145" lon="0.617234">
        <ele>954.7</ele>
        <time>2019-11-24T14:41:39Z</time>
      </trkpt>
      <trkpt lat="42.811115" lon="0.617359">
        <ele>955.5</ele>
        <time>2019-11-24T14:41:47Z</time>
      </trkpt>
      <trkpt lat="42.811084" lon="0.617476">
        <ele>956.3</ele>
        <time>2019-11-24T14:41:54Z</time>
      </trkpt>
      <trkpt lat="42.811051" lon="0.617593">
        <ele>958.0</ele>
        <time>2019-11-24T14:42:01Z</time>
      </trkpt>
      <trkpt lat="42.811017" lon="0.617719">
        <ele>958.1</ele>
        <time>2019-11-24T14:42:09Z</time>
      </trkpt>
      <trkpt lat="42.810980" lon="0.617851">
        <ele>958.9</ele>
        <time>2019-11-24T14:42:17Z</time>
      </trkpt>
      <trkpt lat="42.810947" lon="0.617977">
        <ele>958.9</ele>
        <time>2019-11-24T14:42:25Z</time>
      </trkpt>
      <trkpt lat="42.810917" lon="0.618099">
        <ele>959.6</ele>
        <time>2019-11-24T14:42:32Z</time>
      </trkpt>
      <trkpt lat="42.810884" lon="0.618218">
        <ele>959.6</ele>
        <time>2019-11-24T14:42:39Z</time>
      </trkpt>
      <trkpt lat="42.810849" lon="0.618349">
        <ele>959.7</ele>
        <time>2019-11-24T14:42:47Z</time>
      </trkpt>
      <trkpt lat="42.810818" lon="0.618470">
        <ele>960.5</ele>
        <time>2019-11-24T14:42:54Z</time>
      </trkpt>
      <trkpt lat="42.810791" lon="0.618601">
        <ele>960.5</ele>
        <time>2019-11-24T14:43:02Z</time>
      </trkpt>
      <trkpt lat="42.810776" lon="0.618723">
        <ele>960.5</ele>
        <time>2019-11-24T14:43:09Z</time>
      </trkpt>
      <trkpt lat="42.810766" lon="0.618850">
        <ele>961.2</ele>
        <time>2019-11-24T14:43:16Z</time>
      </trkpt>
      <trkpt lat="42.810757" lon="0.618985">
        <ele>962.0</ele>
        <time>2019-11-24T14:43:24Z</time>
      </trkpt>
      <trkpt lat="42.810752" lon="0.619113">
        <ele>961.9</ele>
        <time>2019-11-24T14:43:31Z</time>
      </trkpt>
      <trkpt lat="42.810745" lon="0.619258">
        <ele>962.7</ele>
        <time>2019-11-24T14:43:38Z</time>
      </trkpt>
      <trkpt lat="42.810745" lon="0.619388">
        <ele>963.6</ele>
        <time>2019-11-24T14:43:46Z</time>
      </trkpt>
      <trkpt lat="42.810745" lon="0.619506">
        <ele>966.0</ele>
        <time>2019-11-24T14:43:53Z</time>
      </trkpt>
      <trkpt lat="42.810761" lon="0.619641">
        <ele>965.9</ele>
        <time>2019-11-24T14:44:00Z</time>
      </trkpt>
      <trkpt lat="42.810782" lon="0.619773">
        <ele>966.6</ele>
        <time>2019-11-24T14:44:07Z</time>
      </trkpt>
      <trkpt lat="42.810809" lon="0.619903">
        <ele>967.5</ele>
        <time>2019-11-24T14:44:14Z</time>
      </trkpt>
      <trkpt lat="42.810831" lon="0.620031">
        <ele>968.3</ele>
        <time>2019-11-24T14:44:21Z</time>
      </trkpt>
      <trkpt lat="42.810872" lon="0.620142">
        <ele>970.0</ele>
        <time>2019-11-24T14:44:27Z</time>
      </trkpt>
      <trkpt lat="42.810904" lon="0.620264">
        <ele>970.8</ele>
        <time>2019-11-24T14:44:34Z</time>
      </trkpt>
      <trkpt lat="42.810932" lon="0.620392">
        <ele>972.7</ele>
        <time>2019-11-24T14:44:41Z</time>
      </trkpt>
      <trkpt lat="42.810940" lon="0.620519">
        <ele>974.7</ele>
        <time>2019-11-24T14:44:48Z</time>
      </trkpt>
      <trkpt lat="42.810958" lon="0.620654">
        <ele>976.4</ele>
        <time>2019-11-24T14:44:56Z</time>
      </trkpt>
      <trkpt lat="42.810979" lon="0.620797">
        <ele>979.0</ele>
        <time>2019-11-24T14:45:04Z</time>
      </trkpt>
      <trkpt lat="42.811020" lon="0.620933">
        <ele>979.9</ele>
        <time>2019-11-24T14:45:11Z</time>
      </trkpt>
      <trkpt lat="42.811048" lon="0.621071">
        <ele>980.7</ele>
        <time>2019-11-24T14:45:18Z</time>
      </trkpt>
      <trkpt lat="42.811006" lon="0.621227">
        <ele>981.7</ele>
        <time>2019-11-24T14:45:27Z</time>
      </trkpt>
      <trkpt lat="42.810984" lon="0.621351">
        <ele>983.6</ele>
        <time>2019-11-24T14:45:34Z</time>
      </trkpt>
      <trkpt lat="42.810960" lon="0.621484">
        <ele>984.5</ele>
        <time>2019-11-24T14:45:41Z</time>
      </trkpt>
      <trkpt lat="42.810913" lon="0.621610">
        <ele>985.4</ele>
        <time>2019-11-24T14:45:49Z</time>
      </trkpt>
      <trkpt lat="42.810856" lon="0.621738">
        <ele>986.2</ele>
        <time>2019-11-24T14:45:57Z</time>
      </trkpt>
      <trkpt lat="42.810769" lon="0.621828">
        <ele>987.0</ele>
        <time>2019-11-24T14:46:05Z</time>
      </trkpt>
      <trkpt lat="42.810682" lon="0.621930">
        <ele>987.8</ele>
        <time>2019-11-24T14:46:13Z</time>
      </trkpt>
      <trkpt lat="42.810627" lon="0.622045">
        <ele>989.5</ele>
        <time>2019-11-24T14:46:21Z</time>
      </trkpt>
      <trkpt lat="42.810570" lon="0.622158">
        <ele>992.2</ele>
        <time>2019-11-24T14:46:29Z</time>
      </trkpt>
      <trkpt lat="42.810523" lon="0.622269">
        <ele>993.3</ele>
        <time>2019-11-24T14:46:36Z</time>
      </trkpt>
      <trkpt lat="42.810477" lon="0.622388">
        <ele>995.1</ele>
        <time>2019-11-24T14:46:44Z</time>
      </trkpt>
      <trkpt lat="42.810443" lon="0.622502">
        <ele>996.1</ele>
        <time>2019-11-24T14:46:51Z</time>
      </trkpt>
      <trkpt lat="42.810421" lon="0.622621">
        <ele>997.1</ele>
        <time>2019-11-24T14:46:58Z</time>
      </trkpt>
      <trkpt lat="42.810410" lon="0.622747">
        <ele>997.9</ele>
        <time>2019-11-24T14:47:05Z</time>
      </trkpt>
      <trkpt lat="42.810429" lon="0.622878">
        <ele>998.6</ele>
        <time>2019-11-24T14:47:11Z</time>
      </trkpt>
      <trkpt lat="42.810502" lon="0.622976">
        <ele>998.6</ele>
        <time>2019-11-24T14:47:18Z</time>
      </trkpt>
      <trkpt lat="42.810582" lon="0.623084">
        <ele>999.3</ele>
        <time>2019-11-24T14:47:26Z</time>
      </trkpt>
      <trkpt lat="42.810631" lon="0.623203">
        <ele>1000.3</ele>
        <time>2019-11-24T14:47:32Z</time>
      </trkpt>
      <trkpt lat="42.810665" lon="0.623344">
        <ele>1001.2</ele>
        <time>2019-11-24T14:47:40Z</time>
      </trkpt>
      <trkpt lat="42.810684" lon="0.623473">
        <ele>1002.7</ele>
        <time>2019-11-24T14:47:48Z</time>
      </trkpt>
      <trkpt lat="42.810685" lon="0.623594">
        <ele>1004.6</ele>
        <time>2019-11-24T14:47:55Z</time>
      </trkpt>
      <trkpt lat="42.810652" lon="0.623721">
        <ele>1007.4</ele>
        <time>2019-11-24T14:48:04Z</time>
      </trkpt>
      <trkpt lat="42.810682" lon="0.623852">
        <ele>1008.2</ele>
        <time>2019-11-24T14:48:12Z</time>
      </trkpt>
      <trkpt lat="42.810727" lon="0.623962">
        <ele>1009.9</ele>
        <time>2019-11-24T14:48:19Z</time>
      </trkpt>
      <trkpt lat="42.810787" lon="0.624077">
        <ele>1012.7</ele>
        <time>2019-11-24T14:48:27Z</time>
      </trkpt>
      <trkpt lat="42.810888" lon="0.624123">
        <ele>1015.1</ele>
        <time>2019-11-24T14:48:36Z</time>
      </trkpt>
      <trkpt lat="42.811000" lon="0.624124">
        <ele>1016.9</ele>
        <time>2019-11-24T14:48:45Z</time>
      </trkpt>
      <trkpt lat="42.811109" lon="0.624175">
        <ele>1019.5</ele>
        <time>2019-11-24T14:48:54Z</time>
      </trkpt>
      <trkpt lat="42.811178" lon="0.624294">
        <ele>1022.3</ele>
        <time>2019-11-24T14:49:03Z</time>
      </trkpt>
      <trkpt lat="42.811221" lon="0.624417">
        <ele>1024.0</ele>
        <time>2019-11-24T14:49:11Z</time>
      </trkpt>
      <trkpt lat="42.811205" lon="0.624559">
        <ele>1024.7</ele>
        <time>2019-11-24T14:49:37Z</time>
      </trkpt>
      <trkpt lat="42.811173" lon="0.624707">
        <ele>1026.7</ele>
        <time>2019-11-24T14:49:47Z</time>
      </trkpt>
      <trkpt lat="42.811171" lon="0.624858">
        <ele>1029.2</ele>
        <time>2019-11-24T14:49:56Z</time>
      </trkpt>
      <trkpt lat="42.811190" lon="0.625012">
        <ele>1031.3</ele>
        <time>2019-11-24T14:50:05Z</time>
      </trkpt>
      <trkpt lat="42.811287" lon="0.625120">
        <ele>1033.1</ele>
        <time>2019-11-24T14:50:14Z</time>
      </trkpt>
      <trkpt lat="42.811411" lon="0.625218">
        <ele>1034.8</ele>
        <time>2019-11-24T14:50:23Z</time>
      </trkpt>
      <trkpt lat="42.811503" lon="0.625328">
        <ele>1036.7</ele>
        <time>2019-11-24T14:50:33Z</time>
      </trkpt>
      <trkpt lat="42.811582" lon="0.625436">
        <ele>1039.2</ele>
        <time>2019-11-24T14:50:41Z</time>
      </trkpt>
      <trkpt lat="42.811646" lon="0.625599">
        <ele>1040.9</ele>
        <time>2019-11-24T14:50:49Z</time>
      </trkpt>
      <trkpt lat="42.811713" lon="0.625753">
        <ele>1042.4</ele>
        <time>2019-11-24T14:51:01Z</time>
      </trkpt>
      <trkpt lat="42.811748" lon="0.625893">
        <ele>1044.2</ele>
        <time>2019-11-24T14:51:12Z</time>
      </trkpt>
      <trkpt lat="42.811789" lon="0.626024">
        <ele>1046.6</ele>
        <time>2019-11-24T14:51:23Z</time>
      </trkpt>
      <trkpt lat="42.811820" lon="0.626147">
        <ele>1049.5</ele>
        <time>2019-11-24T14:51:33Z</time>
      </trkpt>
      <trkpt lat="42.811861" lon="0.626274">
        <ele>1053.0</ele>
        <time>2019-11-24T14:51:42Z</time>
      </trkpt>
      <trkpt lat="42.811891" lon="0.626391">
        <ele>1054.8</ele>
        <time>2019-11-24T14:51:50Z</time>
      </trkpt>
      <trkpt lat="42.811955" lon="0.626489">
        <ele>1056.8</ele>
        <time>2019-11-24T14:51:57Z</time>
      </trkpt>
      <trkpt lat="42.812004" lon="0.626601">
        <ele>1058.7</ele>
        <time>2019-11-24T14:52:04Z</time>
      </trkpt>
      <trkpt lat="42.812064" lon="0.626707">
        <ele>1060.5</ele>
        <time>2019-11-24T14:52:11Z</time>
      </trkpt>
      <trkpt lat="42.812115" lon="0.626834">
        <ele>1062.1</ele>
        <time>2019-11-24T14:52:18Z</time>
      </trkpt>
      <trkpt lat="42.812136" lon="0.626963">
        <ele>1063.8</ele>
        <time>2019-11-24T14:52:26Z</time>
      </trkpt>
      <trkpt lat="42.812116" lon="0.627130">
        <ele>1066.6</ele>
        <time>2019-11-24T14:52:35Z</time>
      </trkpt>
      <trkpt lat="42.812098" lon="0.627274">
        <ele>1069.4</ele>
        <time>2019-11-24T14:52:45Z</time>
      </trkpt>
      <trkpt lat="42.812086" lon="0.627418">
        <ele>1071.2</ele>
        <time>2019-11-24T14:52:54Z</time>
      </trkpt>
      <trkpt lat="42.812081" lon="0.627558">
        <ele>1072.9</ele>
        <time>2019-11-24T14:53:04Z</time>
      </trkpt>
      <trkpt lat="42.812088" lon="0.627703">
        <ele>1076.9</ele>
        <time>2019-11-24T14:53:15Z</time>
      </trkpt>
      <trkpt lat="42.812117" lon="0.627826">
        <ele>1076.9</ele>
        <time>2019-11-24T14:53:24Z</time>
      </trkpt>
      <trkpt lat="42.812177" lon="0.627938">
        <ele>1076.9</ele>
        <time>2019-11-24T14:53:32Z</time>
      </trkpt>
      <trkpt lat="42.812258" lon="0.628037">
        <ele>1076.9</ele>
        <time>2019-11-24T14:53:40Z</time>
      </trkpt>
      <trkpt lat="42.812354" lon="0.628132">
        <ele>1076.2</ele>
        <time>2019-11-24T14:53:48Z</time>
      </trkpt>
      <trkpt lat="42.812436" lon="0.628265">
        <ele>1075.4</ele>
        <time>2019-11-24T14:53:57Z</time>
      </trkpt>
      <trkpt lat="42.812510" lon="0.628405">
        <ele>1073.0</ele>
        <time>2019-11-24T14:54:08Z</time>
      </trkpt>
      <trkpt lat="42.812614" lon="0.628589">
        <ele>1073.1</ele>
        <time>2019-11-24T14:54:19Z</time>
      </trkpt>
      <trkpt lat="42.812676" lon="0.628754">
        <ele>1073.0</ele>
        <time>2019-11-24T14:54:31Z</time>
      </trkpt>
      <trkpt lat="42.812732" lon="0.628866">
        <ele>1072.9</ele>
        <time>2019-11-24T14:54:42Z</time>
      </trkpt>
      <trkpt lat="42.812779" lon="0.628976">
        <ele>1072.9</ele>
        <time>2019-11-24T14:54:49Z</time>
      </trkpt>
      <trkpt lat="42.812830" lon="0.629105">
        <ele>1072.9</ele>
        <time>2019-11-24T14:54:57Z</time>
      </trkpt>
      <trkpt lat="42.812871" lon="0.629241">
        <ele>1072.9</ele>
        <time>2019-11-24T14:55:05Z</time>
      </trkpt>
      <trkpt lat="42.812910" lon="0.629364">
        <ele>1072.9</ele>
        <time>2019-11-24T14:55:12Z</time>
      </trkpt>
      <trkpt lat="42.812956" lon="0.629494">
        <ele>1072.8</ele>
        <time>2019-11-24T14:55:20Z</time>
      </trkpt>
      <trkpt lat="42.813036" lon="0.629602">
        <ele>1072.8</ele>
        <time>2019-11-24T14:55:27Z</time>
      </trkpt>
      <trkpt lat="42.813106" lon="0.629712">
        <ele>1072.8</ele>
        <time>2019-11-24T14:55:35Z</time>
      </trkpt>
      <trkpt lat="42.813183" lon="0.629830">
        <ele>1073.7</ele>
        <time>2019-11-24T14:55:43Z</time>
      </trkpt>
      <trkpt lat="42.813248" lon="0.629950">
        <ele>1074.4</ele>
        <time>2019-11-24T14:55:51Z</time>
      </trkpt>
      <trkpt lat="42.813275" lon="0.630111">
        <ele>1074.6</ele>
        <time>2019-11-24T14:55:59Z</time>
      </trkpt>
      <trkpt lat="42.813275" lon="0.630298">
        <ele>1075.4</ele>
        <time>2019-11-24T14:56:12Z</time>
      </trkpt>
      <trkpt lat="42.813183" lon="0.630387">
        <ele>1077.0</ele>
        <time>2019-11-24T14:56:21Z</time>
      </trkpt>
      <trkpt lat="42.813083" lon="0.630528">
        <ele>1078.0</ele>
        <time>2019-11-24T14:56:30Z</time>
      </trkpt>
      <trkpt lat="42.812998" lon="0.630696">
        <ele>1079.7</ele>
        <time>2019-11-24T14:56:42Z</time>
      </trkpt>
      <trkpt lat="42.812939" lon="0.630820">
        <ele>1081.5</ele>
        <time>2019-11-24T14:56:52Z</time>
      </trkpt>
      <trkpt lat="42.812875" lon="0.630950">
        <ele>1082.4</ele>
        <time>2019-11-24T14:57:00Z</time>
      </trkpt>
      <trkpt lat="42.812818" lon="0.631078">
        <ele>1084.1</ele>
        <time>2019-11-24T14:57:10Z</time>
      </trkpt>
      <trkpt lat="42.812771" lon="0.631227">
        <ele>1084.1</ele>
        <time>2019-11-24T14:57:19Z</time>
      </trkpt>
      <trkpt lat="42.812752" lon="0.631360">
        <ele>1084.1</ele>
        <time>2019-11-24T14:57:27Z</time>
      </trkpt>
      <trkpt lat="42.812738" lon="0.631500">
        <ele>1084.1</ele>
        <time>2019-11-24T14:57:35Z</time>
      </trkpt>
      <trkpt lat="42.812731" lon="0.631649">
        <ele>1084.1</ele>
        <time>2019-11-24T14:57:43Z</time>
      </trkpt>
      <trkpt lat="42.812722" lon="0.631792">
        <ele>1086.6</ele>
        <time>2019-11-24T14:57:51Z</time>
      </trkpt>
      <trkpt lat="42.812734" lon="0.631937">
        <ele>1086.6</ele>
        <time>2019-11-24T14:57:59Z</time>
      </trkpt>
      <trkpt lat="42.812733" lon="0.632075">
        <ele>1084.8</ele>
        <time>2019-11-24T14:58:07Z</time>
      </trkpt>
      <trkpt lat="42.812732" lon="0.632215">
        <ele>1083.9</ele>
        <time>2019-11-24T14:58:16Z</time>
      </trkpt>
      <trkpt lat="42.812744" lon="0.632356">
        <ele>1083.1</ele>
        <time>2019-11-24T14:58:24Z</time>
      </trkpt>
      <trkpt lat="42.812740" lon="0.632508">
        <ele>1081.3</ele>
        <time>2019-11-24T14:58:33Z</time>
      </trkpt>
      <trkpt lat="42.812742" lon="0.632669">
        <ele>1080.6</ele>
        <time>2019-11-24T14:58:42Z</time>
      </trkpt>
      <trkpt lat="42.812734" lon="0.632822">
        <ele>1079.7</ele>
        <time>2019-11-24T14:58:51Z</time>
      </trkpt>
      <trkpt lat="42.812735" lon="0.632961">
        <ele>1078.9</ele>
        <time>2019-11-24T14:58:59Z</time>
      </trkpt>
      <trkpt lat="42.812787" lon="0.633091">
        <ele>1077.2</ele>
        <time>2019-11-24T14:59:07Z</time>
      </trkpt>
      <trkpt lat="42.812889" lon="0.633164">
        <ele>1076.4</ele>
        <time>2019-11-24T14:59:15Z</time>
      </trkpt>
      <trkpt lat="42.812976" lon="0.633241">
        <ele>1076.4</ele>
        <time>2019-11-24T14:59:23Z</time>
      </trkpt>
      <trkpt lat="42.813070" lon="0.633327">
        <ele>1075.6</ele>
        <time>2019-11-24T14:59:31Z</time>
      </trkpt>
      <trkpt lat="42.813163" lon="0.633406">
        <ele>1075.6</ele>
        <time>2019-11-24T14:59:39Z</time>
      </trkpt>
      <trkpt lat="42.813246" lon="0.633487">
        <ele>1074.7</ele>
        <time>2019-11-24T14:59:47Z</time>
      </trkpt>
      <trkpt lat="42.813304" lon="0.633615">
        <ele>1073.2</ele>
        <time>2019-11-24T14:59:56Z</time>
      </trkpt>
      <trkpt lat="42.813380" lon="0.633713">
        <ele>1072.3</ele>
        <time>2019-11-24T15:00:04Z</time>
      </trkpt>
      <trkpt lat="42.813458" lon="0.633816">
        <ele>1071.5</ele>
        <time>2019-11-24T15:00:13Z</time>
      </trkpt>
      <trkpt lat="42.813531" lon="0.633910">
        <ele>1070.7</ele>
        <time>2019-11-24T15:00:20Z</time>
      </trkpt>
      <trkpt lat="42.813606" lon="0.634046">
        <ele>1069.9</ele>
        <time>2019-11-24T15:00:29Z</time>
      </trkpt>
      <trkpt lat="42.813669" lon="0.634143">
        <ele>1069.1</ele>
        <time>2019-11-24T15:00:38Z</time>
      </trkpt>
      <trkpt lat="42.813717" lon="0.634247">
        <ele>1069.0</ele>
        <time>2019-11-24T15:00:45Z</time>
      </trkpt>
      <trkpt lat="42.813784" lon="0.634341">
        <ele>1069.1</ele>
        <time>2019-11-24T15:00:52Z</time>
      </trkpt>
      <trkpt lat="42.813839" lon="0.634449">
        <ele>1069.1</ele>
        <time>2019-11-24T15:01:00Z</time>
      </trkpt>
      <trkpt lat="42.813910" lon="0.634548">
        <ele>1067.3</ele>
        <time>2019-11-24T15:01:10Z</time>
      </trkpt>
      <trkpt lat="42.813985" lon="0.634658">
        <ele>1067.4</ele>
        <time>2019-11-24T15:01:17Z</time>
      </trkpt>
      <trkpt lat="42.814053" lon="0.634796">
        <ele>1066.6</ele>
        <time>2019-11-24T15:01:25Z</time>
      </trkpt>
      <trkpt lat="42.814114" lon="0.634920">
        <ele>1065.0</ele>
        <time>2019-11-24T15:01:33Z</time>
      </trkpt>
      <trkpt lat="42.814170" lon="0.635030">
        <ele>1065.0</ele>
        <time>2019-11-24T15:01:39Z</time>
      </trkpt>
      <trkpt lat="42.814213" lon="0.635179">
        <ele>1064.2</ele>
        <time>2019-11-24T15:01:46Z</time>
      </trkpt>
      <trkpt lat="42.814251" lon="0.635336">
        <ele>1064.2</ele>
        <time>2019-11-24T15:01:53Z</time>
      </trkpt>
      <trkpt lat="42.814298" lon="0.635477">
        <ele>1063.5</ele>
        <time>2019-11-24T15:02:00Z</time>
      </trkpt>
      <trkpt lat="42.814309" lon="0.635635">
        <ele>1062.8</ele>
        <time>2019-11-24T15:02:09Z</time>
      </trkpt>
      <trkpt lat="42.814316" lon="0.635772">
        <ele>1062.1</ele>
        <time>2019-11-24T15:02:18Z</time>
      </trkpt>
      <trkpt lat="42.814342" lon="0.635924">
        <ele>1060.6</ele>
        <time>2019-11-24T15:02:28Z</time>
      </trkpt>
      <trkpt lat="42.814396" lon="0.636036">
        <ele>1059.3</ele>
        <time>2019-11-24T15:02:38Z</time>
      </trkpt>
      <trkpt lat="42.814478" lon="0.636145">
        <ele>1057.7</ele>
        <time>2019-11-24T15:02:45Z</time>
      </trkpt>
      <trkpt lat="42.814608" lon="0.636224">
        <ele>1055.9</ele>
        <time>2019-11-24T15:02:55Z</time>
      </trkpt>
      <trkpt lat="42.814750" lon="0.636305">
        <ele>1053.7</ele>
        <time>2019-11-24T15:03:06Z</time>
      </trkpt>
      <trkpt lat="42.814826" lon="0.636405">
        <ele>1053.8</ele>
        <time>2019-11-24T15:03:20Z</time>
      </trkpt>
      <trkpt lat="42.814915" lon="0.636504">
        <ele>1053.9</ele>
        <time>2019-11-24T15:03:35Z</time>
      </trkpt>
      <trkpt lat="42.814904" lon="0.636668">
        <ele>1055.6</ele>
        <time>2019-11-24T15:03:50Z</time>
      </trkpt>
      <trkpt lat="42.814809" lon="0.636821">
        <ele>1057.7</ele>
        <time>2019-11-24T15:04:02Z</time>
      </trkpt>
      <trkpt lat="42.814768" lon="0.636995">
        <ele>1060.1</ele>
        <time>2019-11-24T15:04:14Z</time>
      </trkpt>
      <trkpt lat="42.814742" lon="0.637168">
        <ele>1060.1</ele>
        <time>2019-11-24T15:04:24Z</time>
      </trkpt>
      <trkpt lat="42.814717" lon="0.637316">
        <ele>1060.1</ele>
        <time>2019-11-24T15:04:33Z</time>
      </trkpt>
      <trkpt lat="42.814712" lon="0.637466">
        <ele>1060.2</ele>
        <time>2019-11-24T15:04:43Z</time>
      </trkpt>
      <trkpt lat="42.814696" lon="0.637621">
        <ele>1060.2</ele>
        <time>2019-11-24T15:04:51Z</time>
      </trkpt>
      <trkpt lat="42.814665" lon="0.637759">
        <ele>1060.2</ele>
        <time>2019-11-24T15:04:59Z</time>
      </trkpt>
      <trkpt lat="42.814616" lon="0.637883">
        <ele>1060.2</ele>
        <time>2019-11-24T15:05:08Z</time>
      </trkpt>
      <trkpt lat="42.814583" lon="0.638035">
        <ele>1058.4</ele>
        <time>2019-11-24T15:05:17Z</time>
      </trkpt>
      <trkpt lat="42.814529" lon="0.638169">
        <ele>1058.4</ele>
        <time>2019-11-24T15:05:25Z</time>
      </trkpt>
      <trkpt lat="42.814494" lon="0.638305">
        <ele>1057.7</ele>
        <time>2019-11-24T15:05:33Z</time>
      </trkpt>
      <trkpt lat="42.814476" lon="0.638448">
        <ele>1056.8</ele>
        <time>2019-11-24T15:05:42Z</time>
      </trkpt>
      <trkpt lat="42.814443" lon="0.638587">
        <ele>1055.9</ele>
        <time>2019-11-24T15:05:51Z</time>
      </trkpt>
      <trkpt lat="42.814417" lon="0.638727">
        <ele>1054.3</ele>
        <time>2019-11-24T15:06:00Z</time>
      </trkpt>
      <trkpt lat="42.814387" lon="0.638861">
        <ele>1053.5</ele>
        <time>2019-11-24T15:06:07Z</time>
      </trkpt>
      <trkpt lat="42.814359" lon="0.639004">
        <ele>1053.5</ele>
        <time>2019-11-24T15:06:14Z</time>
      </trkpt>
      <trkpt lat="42.814332" lon="0.639146">
        <ele>1051.8</ele>
        <time>2019-11-24T15:06:21Z</time>
      </trkpt>
      <trkpt lat="42.814305" lon="0.639289">
        <ele>1050.0</ele>
        <time>2019-11-24T15:06:29Z</time>
      </trkpt>
      <trkpt lat="42.814278" lon="0.639457">
        <ele>1050.0</ele>
        <time>2019-11-24T15:06:37Z</time>
      </trkpt>
      <trkpt lat="42.814259" lon="0.639629">
        <ele>1049.3</ele>
        <time>2019-11-24T15:06:46Z</time>
      </trkpt>
      <trkpt lat="42.814208" lon="0.639787">
        <ele>1049.3</ele>
        <time>2019-11-24T15:06:54Z</time>
      </trkpt>
      <trkpt lat="42.814126" lon="0.639940">
        <ele>1047.6</ele>
        <time>2019-11-24T15:07:03Z</time>
      </trkpt>
      <trkpt lat="42.814071" lon="0.640085">
        <ele>1046.6</ele>
        <time>2019-11-24T15:07:11Z</time>
      </trkpt>
      <trkpt lat="42.814029" lon="0.640228">
        <ele>1045.9</ele>
        <time>2019-11-24T15:07:20Z</time>
      </trkpt>
      <trkpt lat="42.814003" lon="0.640387">
        <ele>1043.8</ele>
        <time>2019-11-24T15:07:28Z</time>
      </trkpt>
      <trkpt lat="42.814001" lon="0.640527">
        <ele>1042.0</ele>
        <time>2019-11-24T15:07:38Z</time>
      </trkpt>
      <trkpt lat="42.813990" lon="0.640647">
        <ele>1040.9</ele>
        <time>2019-11-24T15:07:48Z</time>
      </trkpt>
      <trkpt lat="42.813960" lon="0.640831">
        <ele>1040.5</ele>
        <time>2019-11-24T15:08:11Z</time>
      </trkpt>
      <trkpt lat="42.813942" lon="0.640900">
        <ele>1043.1</ele>
        <time>2019-11-24T15:08:50Z</time>
      </trkpt>
      <trkpt lat="42.814023" lon="0.641025">
        <ele>1046.0</ele>
        <time>2019-11-24T15:09:03Z</time>
      </trkpt>
      <trkpt lat="42.814086" lon="0.641160">
        <ele>1048.6</ele>
        <time>2019-11-24T15:09:19Z</time>
      </trkpt>
      <trkpt lat="42.814109" lon="0.641287">
        <ele>1050.6</ele>
        <time>2019-11-24T15:09:39Z</time>
      </trkpt>
      <trkpt lat="42.814127" lon="0.641482">
        <ele>1053.1</ele>
        <time>2019-11-24T15:09:52Z</time>
      </trkpt>
      <trkpt lat="42.814133" lon="0.641624">
        <ele>1055.6</ele>
        <time>2019-11-24T15:10:12Z</time>
      </trkpt>
      <trkpt lat="42.814171" lon="0.641743">
        <ele>1059.2</ele>
        <time>2019-11-24T15:10:24Z</time>
      </trkpt>
      <trkpt lat="42.814189" lon="0.641917">
        <ele>1063.8</ele>
        <time>2019-11-24T15:10:38Z</time>
      </trkpt>
      <trkpt lat="42.814238" lon="0.642001">
        <ele>1067.4</ele>
        <time>2019-11-24T15:10:50Z</time>
      </trkpt>
      <trkpt lat="42.814304" lon="0.642130">
        <ele>1069.9</ele>
        <time>2019-11-24T15:11:12Z</time>
      </trkpt>
      <trkpt lat="42.814359" lon="0.642264">
        <ele>1073.4</ele>
        <time>2019-11-24T15:11:23Z</time>
      </trkpt>
      <trkpt lat="42.814438" lon="0.642391">
        <ele>1078.0</ele>
        <time>2019-11-24T15:11:36Z</time>
      </trkpt>
      <trkpt lat="42.814516" lon="0.642434">
        <ele>1081.5</ele>
        <time>2019-11-24T15:12:24Z</time>
      </trkpt>
      <trkpt lat="42.814532" lon="0.642493">
        <ele>1081.1</ele>
        <time>2019-11-24T15:15:33Z</time>
      </trkpt>
      <trkpt lat="42.814477" lon="0.642537">
        <ele>1082.3</ele>
        <time>2019-11-24T15:16:05Z</time>
      </trkpt>
      <trkpt lat="42.814386" lon="0.642622">
        <ele>1088.7</ele>
        <time>2019-11-24T15:16:19Z</time>
      </trkpt>
      <trkpt lat="42.814346" lon="0.642809">
        <ele>1094.4</ele>
        <time>2019-11-24T15:16:35Z</time>
      </trkpt>
      <trkpt lat="42.814192" lon="0.642941">
        <ele>1099.2</ele>
        <time>2019-11-24T15:16:51Z</time>
      </trkpt>
      <trkpt lat="42.814040" lon="0.643081">
        <ele>1105.1</ele>
        <time>2019-11-24T15:17:04Z</time>
      </trkpt>
      <trkpt lat="42.813909" lon="0.643178">
        <ele>1112.0</ele>
        <time>2019-11-24T15:17:22Z</time>
      </trkpt>
      <trkpt lat="42.813768" lon="0.643283">
        <ele>1118.8</ele>
        <time>2019-11-24T15:17:41Z</time>
      </trkpt>
      <trkpt lat="42.813610" lon="0.643320">
        <ele>1124.3</ele>
        <time>2019-11-24T15:17:59Z</time>
      </trkpt>
      <trkpt lat="42.813468" lon="0.643394">
        <ele>1129.6</ele>
        <time>2019-11-24T15:18:15Z</time>
      </trkpt>
      <trkpt lat="42.813319" lon="0.643444">
        <ele>1134.0</ele>
        <time>2019-11-24T15:18:30Z</time>
      </trkpt>
      <trkpt lat="42.813164" lon="0.643528">
        <ele>1139.9</ele>
        <time>2019-11-24T15:18:48Z</time>
      </trkpt>
      <trkpt lat="42.813025" lon="0.643593">
        <ele>1145.1</ele>
        <time>2019-11-24T15:19:05Z</time>
      </trkpt>
      <trkpt lat="42.812916" lon="0.643707">
        <ele>1149.8</ele>
        <time>2019-11-24T15:19:19Z</time>
      </trkpt>
      <trkpt lat="42.812792" lon="0.643832">
        <ele>1153.2</ele>
        <time>2019-11-24T15:19:34Z</time>
      </trkpt>
      <trkpt lat="42.812691" lon="0.643984">
        <ele>1155.4</ele>
        <time>2019-11-24T15:19:48Z</time>
      </trkpt>
      <trkpt lat="42.812600" lon="0.644075">
        <ele>1159.3</ele>
        <time>2019-11-24T15:20:02Z</time>
      </trkpt>
      <trkpt lat="42.812508" lon="0.644208">
        <ele>1161.9</ele>
        <time>2019-11-24T15:20:14Z</time>
      </trkpt>
      <trkpt lat="42.812394" lon="0.644348">
        <ele>1165.2</ele>
        <time>2019-11-24T15:20:27Z</time>
      </trkpt>
      <trkpt lat="42.812282" lon="0.644495">
        <ele>1170.6</ele>
        <time>2019-11-24T15:20:42Z</time>
      </trkpt>
      <trkpt lat="42.812189" lon="0.644684">
        <ele>1175.9</ele>
        <time>2019-11-24T15:20:57Z</time>
      </trkpt>
      <trkpt lat="42.812090" lon="0.644885">
        <ele>1181.8</ele>
        <time>2019-11-24T15:21:12Z</time>
      </trkpt>
      <trkpt lat="42.812018" lon="0.644997">
        <ele>1184.9</ele>
        <time>2019-11-24T15:21:33Z</time>
      </trkpt>
      <trkpt lat="42.811939" lon="0.645192">
        <ele>1190.0</ele>
        <time>2019-11-24T15:21:52Z</time>
      </trkpt>
      <trkpt lat="42.811862" lon="0.645380">
        <ele>1196.6</ele>
        <time>2019-11-24T15:22:12Z</time>
      </trkpt>
      <trkpt lat="42.811807" lon="0.645568">
        <ele>1203.0</ele>
        <time>2019-11-24T15:22:31Z</time>
      </trkpt>
      <trkpt lat="42.811721" lon="0.645733">
        <ele>1207.7</ele>
        <time>2019-11-24T15:22:46Z</time>
      </trkpt>
      <trkpt lat="42.811636" lon="0.645933">
        <ele>1213.9</ele>
        <time>2019-11-24T15:23:03Z</time>
      </trkpt>
      <trkpt lat="42.811559" lon="0.646109">
        <ele>1219.2</ele>
        <time>2019-11-24T15:23:20Z</time>
      </trkpt>
      <trkpt lat="42.811481" lon="0.646287">
        <ele>1223.3</ele>
        <time>2019-11-24T15:23:36Z</time>
      </trkpt>
      <trkpt lat="42.811388" lon="0.646472">
        <ele>1226.9</ele>
        <time>2019-11-24T15:23:49Z</time>
      </trkpt>
      <trkpt lat="42.811289" lon="0.646663">
        <ele>1231.8</ele>
        <time>2019-11-24T15:24:06Z</time>
      </trkpt>
      <trkpt lat="42.811214" lon="0.646839">
        <ele>1236.0</ele>
        <time>2019-11-24T15:24:22Z</time>
      </trkpt>
      <trkpt lat="42.811131" lon="0.646966">
        <ele>1236.9</ele>
        <time>2019-11-24T15:24:38Z</time>
      </trkpt>
      <trkpt lat="42.811066" lon="0.647108">
        <ele>1241.7</ele>
        <time>2019-11-24T15:24:54Z</time>
      </trkpt>
      <trkpt lat="42.810987" lon="0.647276">
        <ele>1246.0</ele>
        <time>2019-11-24T15:25:10Z</time>
      </trkpt>
      <trkpt lat="42.810929" lon="0.647495">
        <ele>1250.6</ele>
        <time>2019-11-24T15:25:27Z</time>
      </trkpt>
      <trkpt lat="42.810914" lon="0.647643">
        <ele>1255.3</ele>
        <time>2019-11-24T15:25:42Z</time>
      </trkpt>
      <trkpt lat="42.810872" lon="0.647791">
        <ele>1258.7</ele>
        <time>2019-11-24T15:25:57Z</time>
      </trkpt>
      <trkpt lat="42.810830" lon="0.647912">
        <ele>1262.1</ele>
        <time>2019-11-24T15:26:19Z</time>
      </trkpt>
      <trkpt lat="42.810776" lon="0.648048">
        <ele>1266.4</ele>
        <time>2019-11-24T15:26:33Z</time>
      </trkpt>
      <trkpt lat="42.810748" lon="0.648211">
        <ele>1269.7</ele>
        <time>2019-11-24T15:26:46Z</time>
      </trkpt>
      <trkpt lat="42.810705" lon="0.648414">
        <ele>1272.7</ele>
        <time>2019-11-24T15:26:59Z</time>
      </trkpt>
      <trkpt lat="42.810657" lon="0.648566">
        <ele>1276.0</ele>
        <time>2019-11-24T15:27:12Z</time>
      </trkpt>
      <trkpt lat="42.810601" lon="0.648714">
        <ele>1279.5</ele>
        <time>2019-11-24T15:27:24Z</time>
      </trkpt>
      <trkpt lat="42.810524" lon="0.648896">
        <ele>1281.9</ele>
        <time>2019-11-24T15:27:37Z</time>
      </trkpt>
      <trkpt lat="42.810448" lon="0.648994">
        <ele>1284.7</ele>
        <time>2019-11-24T15:27:52Z</time>
      </trkpt>
      <trkpt lat="42.810372" lon="0.649122">
        <ele>1287.9</ele>
        <time>2019-11-24T15:28:04Z</time>
      </trkpt>
      <trkpt lat="42.810332" lon="0.649259">
        <ele>1292.1</ele>
        <time>2019-11-24T15:28:18Z</time>
      </trkpt>
      <trkpt lat="42.810264" lon="0.649387">
        <ele>1294.6</ele>
        <time>2019-11-24T15:28:29Z</time>
      </trkpt>
      <trkpt lat="42.810264" lon="0.649520">
        <ele>1296.2</ele>
        <time>2019-11-24T15:28:49Z</time>
      </trkpt>
      <trkpt lat="42.810284" lon="0.649685">
        <ele>1300.7</ele>
        <time>2019-11-24T15:29:01Z</time>
      </trkpt>
      <trkpt lat="42.810265" lon="0.649854">
        <ele>1305.3</ele>
        <time>2019-11-24T15:29:12Z</time>
      </trkpt>
      <trkpt lat="42.810226" lon="0.649979">
        <ele>1309.1</ele>
        <time>2019-11-24T15:29:26Z</time>
      </trkpt>
      <trkpt lat="42.810188" lon="0.650054">
        <ele>1309.8</ele>
        <time>2019-11-24T15:29:59Z</time>
      </trkpt>
      <trkpt lat="42.810115" lon="0.650171">
        <ele>1311.6</ele>
        <time>2019-11-24T15:30:14Z</time>
      </trkpt>
      <trkpt lat="42.810002" lon="0.650314">
        <ele>1313.5</ele>
        <time>2019-11-24T15:30:31Z</time>
      </trkpt>
      <trkpt lat="42.809934" lon="0.650458">
        <ele>1316.0</ele>
        <time>2019-11-24T15:30:45Z</time>
      </trkpt>
      <trkpt lat="42.809873" lon="0.650585">
        <ele>1317.8</ele>
        <time>2019-11-24T15:30:56Z</time>
      </trkpt>
      <trkpt lat="42.809841" lon="0.650733">
        <ele>1320.5</ele>
        <time>2019-11-24T15:31:08Z</time>
      </trkpt>
      <trkpt lat="42.809812" lon="0.650918">
        <ele>1324.9</ele>
        <time>2019-11-24T15:31:21Z</time>
      </trkpt>
      <trkpt lat="42.809753" lon="0.651132">
        <ele>1330.3</ele>
        <time>2019-11-24T15:31:37Z</time>
      </trkpt>
      <trkpt lat="42.809667" lon="0.651328">
        <ele>1335.1</ele>
        <time>2019-11-24T15:31:52Z</time>
      </trkpt>
      <trkpt lat="42.809484" lon="0.651407">
        <ele>1337.7</ele>
        <time>2019-11-24T15:32:06Z</time>
      </trkpt>
      <trkpt lat="42.809327" lon="0.651408">
        <ele>1342.4</ele>
        <time>2019-11-24T15:32:22Z</time>
      </trkpt>
      <trkpt lat="42.809209" lon="0.651438">
        <ele>1349.2</ele>
        <time>2019-11-24T15:32:41Z</time>
      </trkpt>
      <trkpt lat="42.809127" lon="0.651536">
        <ele>1353.0</ele>
        <time>2019-11-24T15:32:53Z</time>
      </trkpt>
      <trkpt lat="42.809152" lon="0.651647">
        <ele>1356.4</ele>
        <time>2019-11-24T15:33:07Z</time>
      </trkpt>
      <trkpt lat="42.809226" lon="0.651765">
        <ele>1363.8</ele>
        <time>2019-11-24T15:33:23Z</time>
      </trkpt>
      <trkpt lat="42.809292" lon="0.651849">
        <ele>1366.3</ele>
        <time>2019-11-24T15:33:40Z</time>
      </trkpt>
      <trkpt lat="42.809325" lon="0.651947">
        <ele>1369.8</ele>
        <time>2019-11-24T15:33:50Z</time>
      </trkpt>
      <trkpt lat="42.809348" lon="0.652012">
        <ele>1369.6</ele>
        <time>2019-11-24T15:34:55Z</time>
      </trkpt>
      <trkpt lat="42.809362" lon="0.652002">
        <ele>1369.5</ele>
        <time>2019-11-24T15:35:21Z</time>
      </trkpt>
      <trkpt lat="42.809376" lon="0.652084">
        <ele>1369.4</ele>
        <time>2019-11-24T15:36:00Z</time>
      </trkpt>
      <trkpt lat="42.809361" lon="0.652218">
        <ele>1370.2</ele>
        <time>2019-11-24T15:36:11Z</time>
      </trkpt>
      <trkpt lat="42.809349" lon="0.652343">
        <ele>1371.1</ele>
        <time>2019-11-24T15:36:25Z</time>
      </trkpt>
      <trkpt lat="42.809339" lon="0.652468">
        <ele>1372.9</ele>
        <time>2019-11-24T15:36:36Z</time>
      </trkpt>
      <trkpt lat="42.809360" lon="0.652583">
        <ele>1375.6</ele>
        <time>2019-11-24T15:36:46Z</time>
      </trkpt>
      <trkpt lat="42.809406" lon="0.652687">
        <ele>1378.3</ele>
        <time>2019-11-24T15:36:57Z</time>
      </trkpt>
      <trkpt lat="42.809471" lon="0.652779">
        <ele>1381.6</ele>
        <time>2019-11-24T15:37:09Z</time>
      </trkpt>
      <trkpt lat="42.809539" lon="0.652859">
        <ele>1384.6</ele>
        <time>2019-11-24T15:37:19Z</time>
      </trkpt>
      <trkpt lat="42.809600" lon="0.652938">
        <ele>1388.2</ele>
        <time>2019-11-24T15:37:29Z</time>
      </trkpt>
      <trkpt lat="42.809655" lon="0.653034">
        <ele>1390.9</ele>
        <time>2019-11-24T15:37:39Z</time>
      </trkpt>
      <trkpt lat="42.809710" lon="0.653154">
        <ele>1395.0</ele>
        <time>2019-11-24T15:37:49Z</time>
      </trkpt>
      <trkpt lat="42.809753" lon="0.653260">
        <ele>1398.4</ele>
        <time>2019-11-24T15:38:14Z</time>
      </trkpt>
      <trkpt lat="42.809783" lon="0.653369">
        <ele>1402.0</ele>
        <time>2019-11-24T15:38:27Z</time>
      </trkpt>
      <trkpt lat="42.809827" lon="0.653486">
        <ele>1406.5</ele>
        <time>2019-11-24T15:38:40Z</time>
      </trkpt>
      <trkpt lat="42.809872" lon="0.653616">
        <ele>1411.3</ele>
        <time>2019-11-24T15:38:54Z</time>
      </trkpt>
      <trkpt lat="42.809914" lon="0.653737">
        <ele>1414.7</ele>
        <time>2019-11-24T15:39:07Z</time>
      </trkpt>
      <trkpt lat="42.809941" lon="0.653858">
        <ele>1418.0</ele>
        <time>2019-11-24T15:39:20Z</time>
      </trkpt>
      <trkpt lat="42.809946" lon="0.653987">
        <ele>1420.8</ele>
        <time>2019-11-24T15:39:31Z</time>
      </trkpt>
      <trkpt lat="42.810299" lon="0.654051">
        <ele>1429.5</ele>
        <time>2019-11-24T15:44:39Z</time>
      </trkpt>
      <trkpt lat="42.810352" lon="0.653931">
        <ele>1429.5</ele>
        <time>2019-11-24T15:44:48Z</time>
      </trkpt>
      <trkpt lat="42.810411" lon="0.653782">
        <ele>1429.5</ele>
        <time>2019-11-24T15:44:58Z</time>
      </trkpt>
      <trkpt lat="42.810469" lon="0.653636">
        <ele>1428.8</ele>
        <time>2019-11-24T15:45:08Z</time>
      </trkpt>
      <trkpt lat="42.810529" lon="0.653522">
        <ele>1428.9</ele>
        <time>2019-11-24T15:45:17Z</time>
      </trkpt>
      <trkpt lat="42.810604" lon="0.653399">
        <ele>1428.1</ele>
        <time>2019-11-24T15:45:26Z</time>
      </trkpt>
      <trkpt lat="42.810632" lon="0.653261">
        <ele>1428.2</ele>
        <time>2019-11-24T15:45:36Z</time>
      </trkpt>
      <trkpt lat="42.810676" lon="0.653082">
        <ele>1427.3</ele>
        <time>2019-11-24T15:45:47Z</time>
      </trkpt>
      <trkpt lat="42.810732" lon="0.652902">
        <ele>1426.5</ele>
        <time>2019-11-24T15:46:00Z</time>
      </trkpt>
      <trkpt lat="42.810796" lon="0.652745">
        <ele>1425.5</ele>
        <time>2019-11-24T15:46:11Z</time>
      </trkpt>
      <trkpt lat="42.810877" lon="0.652584">
        <ele>1425.5</ele>
        <time>2019-11-24T15:46:22Z</time>
      </trkpt>
      <trkpt lat="42.810946" lon="0.652466">
        <ele>1425.5</ele>
        <time>2019-11-24T15:46:32Z</time>
      </trkpt>
      <trkpt lat="42.811019" lon="0.652352">
        <ele>1424.7</ele>
        <time>2019-11-24T15:46:41Z</time>
      </trkpt>
      <trkpt lat="42.811109" lon="0.652240">
        <ele>1424.7</ele>
        <time>2019-11-24T15:46:51Z</time>
      </trkpt>
      <trkpt lat="42.811195" lon="0.652117">
        <ele>1423.9</ele>
        <time>2019-11-24T15:47:02Z</time>
      </trkpt>
      <trkpt lat="42.811280" lon="0.652003">
        <ele>1424.0</ele>
        <time>2019-11-24T15:47:13Z</time>
      </trkpt>
      <trkpt lat="42.811381" lon="0.651901">
        <ele>1423.2</ele>
        <time>2019-11-24T15:47:23Z</time>
      </trkpt>
      <trkpt lat="42.811485" lon="0.651780">
        <ele>1423.3</ele>
        <time>2019-11-24T15:47:33Z</time>
      </trkpt>
      <trkpt lat="42.811577" lon="0.651658">
        <ele>1423.3</ele>
        <time>2019-11-24T15:47:45Z</time>
      </trkpt>
      <trkpt lat="42.811650" lon="0.651517">
        <ele>1422.5</ele>
        <time>2019-11-24T15:47:56Z</time>
      </trkpt>
      <trkpt lat="42.811725" lon="0.651360">
        <ele>1422.6</ele>
        <time>2019-11-24T15:48:06Z</time>
      </trkpt>
      <trkpt lat="42.811793" lon="0.651182">
        <ele>1421.8</ele>
        <time>2019-11-24T15:48:17Z</time>
      </trkpt>
      <trkpt lat="42.811847" lon="0.651043">
        <ele>1420.9</ele>
        <time>2019-11-24T15:48:29Z</time>
      </trkpt>
      <trkpt lat="42.811911" lon="0.650911">
        <ele>1420.2</ele>
        <time>2019-11-24T15:48:39Z</time>
      </trkpt>
      <trkpt lat="42.811978" lon="0.650741">
        <ele>1420.2</ele>
        <time>2019-11-24T15:48:51Z</time>
      </trkpt>
      <trkpt lat="42.812022" lon="0.650586">
        <ele>1419.5</ele>
        <time>2019-11-24T15:49:01Z</time>
      </trkpt>
      <trkpt lat="42.812082" lon="0.650454">
        <ele>1418.8</ele>
        <time>2019-11-24T15:49:10Z</time>
      </trkpt>
      <trkpt lat="42.812139" lon="0.650316">
        <ele>1418.1</ele>
        <time>2019-11-24T15:49:19Z</time>
      </trkpt>
      <trkpt lat="42.812197" lon="0.650174">
        <ele>1417.4</ele>
        <time>2019-11-24T15:49:29Z</time>
      </trkpt>
      <trkpt lat="42.812266" lon="0.650039">
        <ele>1417.5</ele>
        <time>2019-11-24T15:49:40Z</time>
      </trkpt>
      <trkpt lat="42.812337" lon="0.649890">
        <ele>1416.9</ele>
        <time>2019-11-24T15:49:53Z</time>
      </trkpt>
      <trkpt lat="42.812408" lon="0.649771">
        <ele>1417.0</ele>
        <time>2019-11-24T15:50:06Z</time>
      </trkpt>
      <trkpt lat="42.812466" lon="0.649631">
        <ele>1417.1</ele>
        <time>2019-11-24T15:50:17Z</time>
      </trkpt>
      <trkpt lat="42.812514" lon="0.649484">
        <ele>1416.4</ele>
        <time>2019-11-24T15:50:39Z</time>
      </trkpt>
      <trkpt lat="42.812576" lon="0.649329">
        <ele>1416.5</ele>
        <time>2019-11-24T15:50:52Z</time>
      </trkpt>
      <trkpt lat="42.812644" lon="0.649170">
        <ele>1416.6</ele>
        <time>2019-11-24T15:51:04Z</time>
      </trkpt>
      <trkpt lat="42.812676" lon="0.649010">
        <ele>1415.8</ele>
        <time>2019-11-24T15:51:15Z</time>
      </trkpt>
      <trkpt lat="42.812695" lon="0.648850">
        <ele>1415.8</ele>
        <time>2019-11-24T15:51:25Z</time>
      </trkpt>
      <trkpt lat="42.812713" lon="0.648711">
        <ele>1415.8</ele>
        <time>2019-11-24T15:51:34Z</time>
      </trkpt>
      <trkpt lat="42.812778" lon="0.648593">
        <ele>1415.0</ele>
        <time>2019-11-24T15:51:44Z</time>
      </trkpt>
      <trkpt lat="42.812839" lon="0.648483">
        <ele>1414.9</ele>
        <time>2019-11-24T15:51:52Z</time>
      </trkpt>
      <trkpt lat="42.812921" lon="0.648400">
        <ele>1414.9</ele>
        <time>2019-11-24T15:52:01Z</time>
      </trkpt>
      <trkpt lat="42.813006" lon="0.648321">
        <ele>1414.9</ele>
        <time>2019-11-24T15:52:10Z</time>
      </trkpt>
      <trkpt lat="42.813092" lon="0.648258">
        <ele>1414.9</ele>
        <time>2019-11-24T15:52:20Z</time>
      </trkpt>
      <trkpt lat="42.813170" lon="0.648219">
        <ele>1414.7</ele>
        <time>2019-11-24T15:53:15Z</time>
      </trkpt>
      <trkpt lat="42.813221" lon="0.648213">
        <ele>1413.3</ele>
        <time>2019-11-24T15:56:04Z</time>
      </trkpt>
      <trkpt lat="42.813273" lon="0.648309">
        <ele>1413.1</ele>
        <time>2019-11-24T15:56:20Z</time>
      </trkpt>
      <trkpt lat="42.813203" lon="0.648362">
        <ele>1416.3</ele>
        <time>2019-11-24T15:57:32Z</time>
      </trkpt>
      <trkpt lat="42.813138" lon="0.648447">
        <ele>1421.5</ele>
        <time>2019-11-24T15:57:52Z</time>
      </trkpt>
      <trkpt lat="42.813078" lon="0.648569">
        <ele>1425.9</ele>
        <time>2019-11-24T15:58:07Z</time>
      </trkpt>
      <trkpt lat="42.813077" lon="0.648700">
        <ele>1429.8</ele>
        <time>2019-11-24T15:58:19Z</time>
      </trkpt>
      <trkpt lat="42.813064" lon="0.648848">
        <ele>1433.6</ele>
        <time>2019-11-24T15:58:35Z</time>
      </trkpt>
      <trkpt lat="42.813099" lon="0.649004">
        <ele>1435.2</ele>
        <time>2019-11-24T15:58:54Z</time>
      </trkpt>
      <trkpt lat="42.813105" lon="0.649205">
        <ele>1440.4</ele>
        <time>2019-11-24T15:59:13Z</time>
      </trkpt>
      <trkpt lat="42.813162" lon="0.649327">
        <ele>1443.8</ele>
        <time>2019-11-24T15:59:31Z</time>
      </trkpt>
      <trkpt lat="42.813155" lon="0.649501">
        <ele>1448.9</ele>
        <time>2019-11-24T15:59:47Z</time>
      </trkpt>
      <trkpt lat="42.813193" lon="0.649639">
        <ele>1455.9</ele>
        <time>2019-11-24T16:00:09Z</time>
      </trkpt>
      <trkpt lat="42.813165" lon="0.649770">
        <ele>1460.8</ele>
        <time>2019-11-24T16:00:31Z</time>
      </trkpt>
      <trkpt lat="42.813120" lon="0.649912">
        <ele>1467.7</ele>
        <time>2019-11-24T16:00:55Z</time>
      </trkpt>
      <trkpt lat="42.813129" lon="0.649908">
        <ele>1465.1</ele>
        <time>2019-11-24T16:05:02Z</time>
      </trkpt>
      <trkpt lat="42.813150" lon="0.649963">
        <ele>1466.1</ele>
        <time>2019-11-24T16:06:49Z</time>
      </trkpt>
      <trkpt lat="42.813164" lon="0.649960">
        <ele>1466.5</ele>
        <time>2019-11-24T16:08:08Z</time>
      </trkpt>
      <trkpt lat="42.813123" lon="0.650083">
        <ele>1473.2</ele>
        <time>2019-11-24T16:08:30Z</time>
      </trkpt>
      <trkpt lat="42.813151" lon="0.650219">
        <ele>1479.7</ele>
        <time>2019-11-24T16:08:48Z</time>
      </trkpt>
      <trkpt lat="42.813155" lon="0.650347">
        <ele>1484.8</ele>
        <time>2019-11-24T16:09:05Z</time>
      </trkpt>
      <trkpt lat="42.813109" lon="0.650493">
        <ele>1488.3</ele>
        <time>2019-11-24T16:09:33Z</time>
      </trkpt>
      <trkpt lat="42.813124" lon="0.650668">
        <ele>1493.1</ele>
        <time>2019-11-24T16:09:47Z</time>
      </trkpt>
      <trkpt lat="42.813179" lon="0.650800">
        <ele>1497.6</ele>
        <time>2019-11-24T16:10:03Z</time>
      </trkpt>
      <trkpt lat="42.813178" lon="0.650933">
        <ele>1504.1</ele>
        <time>2019-11-24T16:10:24Z</time>
      </trkpt>
      <trkpt lat="42.813190" lon="0.651096">
        <ele>1507.9</ele>
        <time>2019-11-24T16:10:40Z</time>
      </trkpt>
      <trkpt lat="42.813194" lon="0.651231">
        <ele>1513.7</ele>
        <time>2019-11-24T16:10:52Z</time>
      </trkpt>
      <trkpt lat="42.813203" lon="0.651369">
        <ele>1518.3</ele>
        <time>2019-11-24T16:11:06Z</time>
      </trkpt>
      <trkpt lat="42.813216" lon="0.651502">
        <ele>1523.7</ele>
        <time>2019-11-24T16:11:20Z</time>
      </trkpt>
      <trkpt lat="42.813235" lon="0.651611">
        <ele>1528.6</ele>
        <time>2019-11-24T16:11:33Z</time>
      </trkpt>
      <trkpt lat="42.813250" lon="0.651739">
        <ele>1533.4</ele>
        <time>2019-11-24T16:11:45Z</time>
      </trkpt>
      <trkpt lat="42.813251" lon="0.651879">
        <ele>1539.3</ele>
        <time>2019-11-24T16:12:00Z</time>
      </trkpt>
      <trkpt lat="42.813277" lon="0.652007">
        <ele>1543.8</ele>
        <time>2019-11-24T16:12:15Z</time>
      </trkpt>
      <trkpt lat="42.813329" lon="0.652113">
        <ele>1548.2</ele>
        <time>2019-11-24T16:12:29Z</time>
      </trkpt>
      <trkpt lat="42.813358" lon="0.652237">
        <ele>1553.9</ele>
        <time>2019-11-24T16:12:43Z</time>
      </trkpt>
      <trkpt lat="42.813374" lon="0.652370">
        <ele>1555.9</ele>
        <time>2019-11-24T16:12:54Z</time>
      </trkpt>
      <trkpt lat="42.813397" lon="0.652499">
        <ele>1558.5</ele>
        <time>2019-11-24T16:17:02Z</time>
      </trkpt>
      <trkpt lat="42.813428" lon="0.652646">
        <ele>1560.2</ele>
        <time>2019-11-24T16:17:46Z</time>
      </trkpt>
      <trkpt lat="42.813430" lon="0.652804">
        <ele>1564.5</ele>
        <time>2019-11-24T16:18:02Z</time>
      </trkpt>
      <trkpt lat="42.813420" lon="0.652985">
        <ele>1570.2</ele>
        <time>2019-11-24T16:18:23Z</time>
      </trkpt>
      <trkpt lat="42.813421" lon="0.653141">
        <ele>1575.2</ele>
        <time>2019-11-24T16:18:38Z</time>
      </trkpt>
      <trkpt lat="42.813442" lon="0.653285">
        <ele>1580.5</ele>
        <time>2019-11-24T16:18:52Z</time>
      </trkpt>
      <trkpt lat="42.813459" lon="0.653440">
        <ele>1585.3</ele>
        <time>2019-11-24T16:19:05Z</time>
      </trkpt>
      <trkpt lat="42.813479" lon="0.653606">
        <ele>1590.6</ele>
        <time>2019-11-24T16:19:21Z</time>
      </trkpt>
      <trkpt lat="42.813499" lon="0.653741">
        <ele>1595.3</ele>
        <time>2019-11-24T16:19:35Z</time>
      </trkpt>
      <trkpt lat="42.813513" lon="0.653907">
        <ele>1599.9</ele>
        <time>2019-11-24T16:19:49Z</time>
      </trkpt>
      <trkpt lat="42.813499" lon="0.654056">
        <ele>1604.9</ele>
        <time>2019-11-24T16:20:04Z</time>
      </trkpt>
      <trkpt lat="42.813427" lon="0.654191">
        <ele>1609.2</ele>
        <time>2019-11-24T16:20:18Z</time>
      </trkpt>
      <trkpt lat="42.813384" lon="0.654333">
        <ele>1612.6</ele>
        <time>2019-11-24T16:20:31Z</time>
      </trkpt>
      <trkpt lat="42.813354" lon="0.654436">
        <ele>1616.4</ele>
        <time>2019-11-24T16:21:35Z</time>
      </trkpt>
      <trkpt lat="42.813349" lon="0.654577">
        <ele>1621.3</ele>
        <time>2019-11-24T16:21:49Z</time>
      </trkpt>
      <trkpt lat="42.813322" lon="0.654735">
        <ele>1627.3</ele>
        <time>2019-11-24T16:22:05Z</time>
      </trkpt>
      <trkpt lat="42.813326" lon="0.654858">
        <ele>1631.3</ele>
        <time>2019-11-24T16:22:19Z</time>
      </trkpt>
      <trkpt lat="42.813329" lon="0.654996">
        <ele>1636.3</ele>
        <time>2019-11-24T16:22:35Z</time>
      </trkpt>
      <trkpt lat="42.813384" lon="0.655104">
        <ele>1642.3</ele>
        <time>2019-11-24T16:22:51Z</time>
      </trkpt>
      <trkpt lat="42.813346" lon="0.655227">
        <ele>1648.5</ele>
        <time>2019-11-24T16:23:06Z</time>
      </trkpt>
      <trkpt lat="42.813343" lon="0.655374">
        <ele>1653.8</ele>
        <time>2019-11-24T16:23:20Z</time>
      </trkpt>
      <trkpt lat="42.813291" lon="0.655476">
        <ele>1660.3</ele>
        <time>2019-11-24T16:23:40Z</time>
      </trkpt>
      <trkpt lat="42.813262" lon="0.655596">
        <ele>1663.9</ele>
        <time>2019-11-24T16:23:54Z</time>
      </trkpt>
      <trkpt lat="42.813291" lon="0.655721">
        <ele>1665.3</ele>
        <time>2019-11-24T16:24:05Z</time>
      </trkpt>
      <trkpt lat="42.813310" lon="0.655846">
        <ele>1667.0</ele>
        <time>2019-11-24T16:24:15Z</time>
      </trkpt>
      <trkpt lat="42.813308" lon="0.655982">
        <ele>1669.5</ele>
        <time>2019-11-24T16:24:26Z</time>
      </trkpt>
      <trkpt lat="42.813312" lon="0.656115">
        <ele>1672.2</ele>
        <time>2019-11-24T16:24:35Z</time>
      </trkpt>
      <trkpt lat="42.813293" lon="0.656250">
        <ele>1673.9</ele>
        <time>2019-11-24T16:24:45Z</time>
      </trkpt>
      <trkpt lat="42.813273" lon="0.656384">
        <ele>1676.3</ele>
        <time>2019-11-24T16:24:56Z</time>
      </trkpt>
      <trkpt lat="42.813295" lon="0.656510">
        <ele>1676.2</ele>
        <time>2019-11-24T16:25:07Z</time>
      </trkpt>
      <trkpt lat="42.813347" lon="0.656603">
        <ele>1677.1</ele>
        <time>2019-11-24T16:25:20Z</time>
      </trkpt>
      <trkpt lat="42.813352" lon="0.656718">
        <ele>1677.1</ele>
        <time>2019-11-24T16:28:44Z</time>
      </trkpt>
      <trkpt lat="42.813371" lon="0.656845">
        <ele>1678.8</ele>
        <time>2019-11-24T16:28:56Z</time>
      </trkpt>
      <trkpt lat="42.813381" lon="0.656976">
        <ele>1680.4</ele>
        <time>2019-11-24T16:29:09Z</time>
      </trkpt>
      <trkpt lat="42.813414" lon="0.657095">
        <ele>1681.9</ele>
        <time>2019-11-24T16:29:24Z</time>
      </trkpt>
      <trkpt lat="42.813454" lon="0.657210">
        <ele>1683.5</ele>
        <time>2019-11-24T16:29:37Z</time>
      </trkpt>
      <trkpt lat="42.813447" lon="0.657292">
        <ele>1683.0</ele>
        <time>2019-11-24T16:31:05Z</time>
      </trkpt>
      <trkpt lat="42.813470" lon="0.657320">
        <ele>1684.0</ele>
        <time>2019-11-24T16:32:03Z</time>
      </trkpt>
      <trkpt lat="42.813474" lon="0.657377">
        <ele>1684.5</ele>
        <time>2019-11-24T16:33:07Z</time>
      </trkpt>
      <trkpt lat="42.813488" lon="0.657520">
        <ele>1686.9</ele>
        <time>2019-11-24T16:33:17Z</time>
      </trkpt>
      <trkpt lat="42.813510" lon="0.657666">
        <ele>1690.4</ele>
        <time>2019-11-24T16:33:27Z</time>
      </trkpt>
      <trkpt lat="42.813530" lon="0.657794">
        <ele>1694.2</ele>
        <time>2019-11-24T16:33:37Z</time>
      </trkpt>
      <trkpt lat="42.813547" lon="0.657929">
        <ele>1697.2</ele>
        <time>2019-11-24T16:33:46Z</time>
      </trkpt>
      <trkpt lat="42.813547" lon="0.658062">
        <ele>1700.0</ele>
        <time>2019-11-24T16:34:02Z</time>
      </trkpt>
      <trkpt lat="42.813568" lon="0.658200">
        <ele>1704.9</ele>
        <time>2019-11-24T16:34:14Z</time>
      </trkpt>
      <trkpt lat="42.813583" lon="0.658344">
        <ele>1710.4</ele>
        <time>2019-11-24T16:34:24Z</time>
      </trkpt>
      <trkpt lat="42.813558" lon="0.658526">
        <ele>1718.0</ele>
        <time>2019-11-24T16:35:56Z</time>
      </trkpt>
      <trkpt lat="42.813522" lon="0.658607">
        <ele>1724.0</ele>
        <time>2019-11-24T16:36:40Z</time>
      </trkpt>
      <trkpt lat="42.813548" lon="0.658693">
        <ele>1727.8</ele>
        <time>2019-11-24T16:37:16Z</time>
      </trkpt>
      <trkpt lat="42.813534" lon="0.658808">
        <ele>1733.8</ele>
        <time>2019-11-24T16:37:28Z</time>
      </trkpt>
      <trkpt lat="42.813518" lon="0.658933">
        <ele>1738.7</ele>
        <time>2019-11-24T16:37:39Z</time>
      </trkpt>
      <trkpt lat="42.813488" lon="0.659061">
        <ele>1743.2</ele>
        <time>2019-11-24T16:37:50Z</time>
      </trkpt>
      <trkpt lat="42.813497" lon="0.659188">
        <ele>1747.9</ele>
        <time>2019-11-24T16:38:04Z</time>
      </trkpt>
      <trkpt lat="42.813498" lon="0.659314">
        <ele>1752.8</ele>
        <time>2019-11-24T16:38:15Z</time>
      </trkpt>
      <trkpt lat="42.813509" lon="0.659438">
        <ele>1757.2</ele>
        <time>2019-11-24T16:38:26Z</time>
      </trkpt>
      <trkpt lat="42.813492" lon="0.659562">
        <ele>1762.6</ele>
        <time>2019-11-24T16:38:37Z</time>
      </trkpt>
      <trkpt lat="42.813472" lon="0.659685">
        <ele>1766.6</ele>
        <time>2019-11-24T16:38:50Z</time>
      </trkpt>
      <trkpt lat="42.813533" lon="0.659797">
        <ele>1771.2</ele>
        <time>2019-11-24T16:39:03Z</time>
      </trkpt>
      <trkpt lat="42.813525" lon="0.659919">
        <ele>1775.6</ele>
        <time>2019-11-24T16:39:14Z</time>
      </trkpt>
      <trkpt lat="42.813515" lon="0.660046">
        <ele>1780.3</ele>
        <time>2019-11-24T16:39:26Z</time>
      </trkpt>
      <trkpt lat="42.813528" lon="0.660170">
        <ele>1786.6</ele>
        <time>2019-11-24T16:39:38Z</time>
      </trkpt>
      <trkpt lat="42.813506" lon="0.660290">
        <ele>1792.0</ele>
        <time>2019-11-24T16:39:48Z</time>
      </trkpt>
      <trkpt lat="42.813461" lon="0.660410">
        <ele>1797.9</ele>
        <time>2019-11-24T16:39:58Z</time>
      </trkpt>
      <trkpt lat="42.813408" lon="0.660526">
        <ele>1802.7</ele>
        <time>2019-11-24T16:40:10Z</time>
      </trkpt>
      <trkpt lat="42.813379" lon="0.660642">
        <ele>1806.4</ele>
        <time>2019-11-24T16:40:20Z</time>
      </trkpt>
      <trkpt lat="42.813385" lon="0.660776">
        <ele>1811.1</ele>
        <time>2019-11-24T16:40:31Z</time>
      </trkpt>
      <trkpt lat="42.813415" lon="0.660884">
        <ele>1816.2</ele>
        <time>2019-11-24T16:41:11Z</time>
      </trkpt>
      <trkpt lat="42.813410" lon="0.661009">
        <ele>1820.9</ele>
        <time>2019-11-24T16:41:25Z</time>
      </trkpt>
      <trkpt lat="42.813420" lon="0.661125">
        <ele>1825.3</ele>
        <time>2019-11-24T16:41:39Z</time>
      </trkpt>
      <trkpt lat="42.813438" lon="0.661251">
        <ele>1830.8</ele>
        <time>2019-11-24T16:41:51Z</time>
      </trkpt>
      <trkpt lat="42.813481" lon="0.661359">
        <ele>1834.9</ele>
        <time>2019-11-24T16:42:02Z</time>
      </trkpt>
      <trkpt lat="42.813480" lon="0.661475">
        <ele>1840.3</ele>
        <time>2019-11-24T16:42:14Z</time>
      </trkpt>
      <trkpt lat="42.813515" lon="0.661580">
        <ele>1844.1</ele>
        <time>2019-11-24T16:42:41Z</time>
      </trkpt>
      <trkpt lat="42.813512" lon="0.661707">
        <ele>1848.7</ele>
        <time>2019-11-24T16:42:54Z</time>
      </trkpt>
      <trkpt lat="42.813561" lon="0.661825">
        <ele>1851.0</ele>
        <time>2019-11-24T16:43:48Z</time>
      </trkpt>
      <trkpt lat="42.813581" lon="0.661951">
        <ele>1854.6</ele>
        <time>2019-11-24T16:44:00Z</time>
      </trkpt>
      <trkpt lat="42.813597" lon="0.662079">
        <ele>1859.2</ele>
        <time>2019-11-24T16:44:12Z</time>
      </trkpt>
      <trkpt lat="42.813600" lon="0.662201">
        <ele>1862.9</ele>
        <time>2019-11-24T16:44:24Z</time>
      </trkpt>
      <trkpt lat="42.813586" lon="0.662299">
        <ele>1862.8</ele>
        <time>2019-11-24T16:45:14Z</time>
      </trkpt>
      <trkpt lat="42.813647" lon="0.662410">
        <ele>1866.7</ele>
        <time>2019-11-24T16:45:26Z</time>
      </trkpt>
      <trkpt lat="42.813738" lon="0.662486">
        <ele>1870.1</ele>
        <time>2019-11-24T16:45:47Z</time>
      </trkpt>
      <trkpt lat="42.813734" lon="0.662571">
        <ele>1874.9</ele>
        <time>2019-11-24T16:46:13Z</time>
      </trkpt>
      <trkpt lat="42.813655" lon="0.662637">
        <ele>1878.3</ele>
        <time>2019-11-24T16:46:33Z</time>
      </trkpt>
      <trkpt lat="42.813662" lon="0.662738">
        <ele>1882.7</ele>
        <time>2019-11-24T16:46:54Z</time>
      </trkpt>
      <trkpt lat="42.813648" lon="0.662860">
        <ele>1887.3</ele>
        <time>2019-11-24T16:47:11Z</time>
      </trkpt>
      <trkpt lat="42.813674" lon="0.662982">
        <ele>1890.7</ele>
        <time>2019-11-24T16:47:24Z</time>
      </trkpt>
      <trkpt lat="42.813604" lon="0.663054">
        <ele>1893.3</ele>
        <time>2019-11-24T16:47:40Z</time>
      </trkpt>
      <trkpt lat="42.813602" lon="0.663187">
        <ele>1896.2</ele>
        <time>2019-11-24T16:47:52Z</time>
      </trkpt>
      <trkpt lat="42.813677" lon="0.663262">
        <ele>1902.2</ele>
        <time>2019-11-24T16:48:08Z</time>
      </trkpt>
      <trkpt lat="42.813700" lon="0.663342">
        <ele>1901.1</ele>
        <time>2019-11-24T16:48:55Z</time>
      </trkpt>
      <trkpt lat="42.813672" lon="0.663464">
        <ele>1901.1</ele>
        <time>2019-11-24T16:49:08Z</time>
      </trkpt>
      <trkpt lat="42.813627" lon="0.663574">
        <ele>1902.7</ele>
        <time>2019-11-24T16:49:19Z</time>
      </trkpt>
      <trkpt lat="42.813567" lon="0.663675">
        <ele>1904.3</ele>
        <time>2019-11-24T16:49:30Z</time>
      </trkpt>
      <trkpt lat="42.813512" lon="0.663760">
        <ele>1907.0</ele>
        <time>2019-11-24T16:49:46Z</time>
      </trkpt>
      <trkpt lat="42.813429" lon="0.663845">
        <ele>1909.7</ele>
        <time>2019-11-24T16:49:57Z</time>
      </trkpt>
      <trkpt lat="42.813359" lon="0.663947">
        <ele>1911.5</ele>
        <time>2019-11-24T16:50:09Z</time>
      </trkpt>
      <trkpt lat="42.813290" lon="0.664040">
        <ele>1914.2</ele>
        <time>2019-11-24T16:50:21Z</time>
      </trkpt>
      <trkpt lat="42.813273" lon="0.664161">
        <ele>1919.0</ele>
        <time>2019-11-24T16:50:34Z</time>
      </trkpt>
      <trkpt lat="42.813236" lon="0.664287">
        <ele>1923.3</ele>
        <time>2019-11-24T16:50:46Z</time>
      </trkpt>
      <trkpt lat="42.813264" lon="0.664381">
        <ele>1925.9</ele>
        <time>2019-11-24T16:50:59Z</time>
      </trkpt>
      <trkpt lat="42.813302" lon="0.664493">
        <ele>1931.8</ele>
        <time>2019-11-24T16:51:12Z</time>
      </trkpt>
      <trkpt lat="42.813258" lon="0.664588">
        <ele>1931.8</ele>
        <time>2019-11-24T16:55:39Z</time>
      </trkpt>
      <trkpt lat="42.813188" lon="0.664660">
        <ele>1929.8</ele>
        <time>2019-11-24T16:56:00Z</time>
      </trkpt>
      <trkpt lat="42.813107" lon="0.664742">
        <ele>1927.5</ele>
        <time>2019-11-24T16:56:21Z</time>
      </trkpt>
      <trkpt lat="42.813036" lon="0.664847">
        <ele>1927.5</ele>
        <time>2019-11-24T16:56:36Z</time>
      </trkpt>
      <trkpt lat="42.812990" lon="0.664967">
        <ele>1928.4</ele>
        <time>2019-11-24T16:56:50Z</time>
      </trkpt>
      <trkpt lat="42.812953" lon="0.665072">
        <ele>1929.2</ele>
        <time>2019-11-24T16:57:08Z</time>
      </trkpt>
      <trkpt lat="42.812876" lon="0.665147">
        <ele>1930.7</ele>
        <time>2019-11-24T16:57:19Z</time>
      </trkpt>
      <trkpt lat="42.812795" lon="0.665212">
        <ele>1932.3</ele>
        <time>2019-11-24T16:57:34Z</time>
      </trkpt>
      <trkpt lat="42.812723" lon="0.665272">
        <ele>1934.8</ele>
        <time>2019-11-24T16:57:53Z</time>
      </trkpt>
      <trkpt lat="42.812633" lon="0.665326">
        <ele>1936.5</ele>
        <time>2019-11-24T16:58:07Z</time>
      </trkpt>
      <trkpt lat="42.812554" lon="0.665404">
        <ele>1937.3</ele>
        <time>2019-11-24T16:58:22Z</time>
      </trkpt>
      <trkpt lat="42.812473" lon="0.665473">
        <ele>1937.3</ele>
        <time>2019-11-24T16:58:34Z</time>
      </trkpt>
      <trkpt lat="42.812386" lon="0.665538">
        <ele>1938.9</ele>
        <time>2019-11-24T16:58:45Z</time>
      </trkpt>
      <trkpt lat="42.812309" lon="0.665600">
        <ele>1942.0</ele>
        <time>2019-11-24T16:58:56Z</time>
      </trkpt>
      <trkpt lat="42.812219" lon="0.665661">
        <ele>1941.2</ele>
        <time>2019-11-24T16:59:31Z</time>
      </trkpt>
      <trkpt lat="42.812147" lon="0.665747">
        <ele>1943.1</ele>
        <time>2019-11-24T16:59:43Z</time>
      </trkpt>
      <trkpt lat="42.812077" lon="0.665828">
        <ele>1945.5</ele>
        <time>2019-11-24T16:59:53Z</time>
      </trkpt>
      <trkpt lat="42.811998" lon="0.665911">
        <ele>1947.2</ele>
        <time>2019-11-24T17:00:04Z</time>
      </trkpt>
      <trkpt lat="42.811925" lon="0.665990">
        <ele>1947.9</ele>
        <time>2019-11-24T17:00:15Z</time>
      </trkpt>
      <trkpt lat="42.811841" lon="0.666067">
        <ele>1950.7</ele>
        <time>2019-11-24T17:00:27Z</time>
      </trkpt>
      <trkpt lat="42.811762" lon="0.666128">
        <ele>1954.4</ele>
        <time>2019-11-24T17:00:37Z</time>
      </trkpt>
      <trkpt lat="42.811689" lon="0.666203">
        <ele>1958.8</ele>
        <time>2019-11-24T17:00:47Z</time>
      </trkpt>
      <trkpt lat="42.811606" lon="0.666254">
        <ele>1960.8</ele>
        <time>2019-11-24T17:00:57Z</time>
      </trkpt>
      <trkpt lat="42.811542" lon="0.666302">
        <ele>1962.5</ele>
        <time>2019-11-24T17:02:31Z</time>
      </trkpt>
      <trkpt lat="42.811470" lon="0.666377">
        <ele>1963.2</ele>
        <time>2019-11-24T17:02:43Z</time>
      </trkpt>
      <trkpt lat="42.811385" lon="0.666436">
        <ele>1966.8</ele>
        <time>2019-11-24T17:02:54Z</time>
      </trkpt>
      <trkpt lat="42.811315" lon="0.666518">
        <ele>1969.8</ele>
        <time>2019-11-24T17:03:04Z</time>
      </trkpt>
      <trkpt lat="42.811231" lon="0.666577">
        <ele>1973.2</ele>
        <time>2019-11-24T17:03:15Z</time>
      </trkpt>
      <trkpt lat="42.811162" lon="0.666657">
        <ele>1975.8</ele>
        <time>2019-11-24T17:03:26Z</time>
      </trkpt>
      <trkpt lat="42.811080" lon="0.666708">
        <ele>1977.5</ele>
        <time>2019-11-24T17:03:37Z</time>
      </trkpt>
      <trkpt lat="42.811008" lon="0.666790">
        <ele>1980.4</ele>
        <time>2019-11-24T17:03:49Z</time>
      </trkpt>
      <trkpt lat="42.810951" lon="0.666862">
        <ele>1980.7</ele>
        <time>2019-11-24T17:08:41Z</time>
      </trkpt>
      <trkpt lat="42.810886" lon="0.666949">
        <ele>1980.8</ele>
        <time>2019-11-24T17:08:54Z</time>
      </trkpt>
      <trkpt lat="42.810823" lon="0.667048">
        <ele>1980.7</ele>
        <time>2019-11-24T17:09:07Z</time>
      </trkpt>
      <trkpt lat="42.810765" lon="0.667140">
        <ele>1981.7</ele>
        <time>2019-11-24T17:09:19Z</time>
      </trkpt>
      <trkpt lat="42.810696" lon="0.667228">
        <ele>1983.6</ele>
        <time>2019-11-24T17:09:28Z</time>
      </trkpt>
      <trkpt lat="42.810612" lon="0.667322">
        <ele>1985.3</ele>
        <time>2019-11-24T17:10:02Z</time>
      </trkpt>
      <trkpt lat="42.810549" lon="0.667409">
        <ele>1987.1</ele>
        <time>2019-11-24T17:10:15Z</time>
      </trkpt>
      <trkpt lat="42.810481" lon="0.667501">
        <ele>1989.2</ele>
        <time>2019-11-24T17:10:25Z</time>
      </trkpt>
      <trkpt lat="42.810413" lon="0.667593">
        <ele>1990.9</ele>
        <time>2019-11-24T17:10:35Z</time>
      </trkpt>
      <trkpt lat="42.810343" lon="0.667676">
        <ele>1991.7</ele>
        <time>2019-11-24T17:10:46Z</time>
      </trkpt>
      <trkpt lat="42.810266" lon="0.667735">
        <ele>1993.5</ele>
        <time>2019-11-24T17:10:55Z</time>
      </trkpt>
      <trkpt lat="42.810196" lon="0.667819">
        <ele>1996.8</ele>
        <time>2019-11-24T17:11:06Z</time>
      </trkpt>
      <trkpt lat="42.810133" lon="0.667902">
        <ele>1996.8</ele>
        <time>2019-11-24T17:11:22Z</time>
      </trkpt>
      <trkpt lat="42.810064" lon="0.667953">
        <ele>1997.9</ele>
        <time>2019-11-24T17:14:01Z</time>
      </trkpt>
      <trkpt lat="42.809975" lon="0.668003">
        <ele>1998.0</ele>
        <time>2019-11-24T17:14:13Z</time>
      </trkpt>
      <trkpt lat="42.809888" lon="0.668073">
        <ele>2001.5</ele>
        <time>2019-11-24T17:14:27Z</time>
      </trkpt>
      <trkpt lat="42.809806" lon="0.668151">
        <ele>2001.7</ele>
        <time>2019-11-24T17:14:41Z</time>
      </trkpt>
      <trkpt lat="42.809731" lon="0.668199">
        <ele>2003.5</ele>
        <time>2019-11-24T17:15:02Z</time>
      </trkpt>
      <trkpt lat="42.809644" lon="0.668242">
        <ele>2004.4</ele>
        <time>2019-11-24T17:15:13Z</time>
      </trkpt>
      <trkpt lat="42.809555" lon="0.668301">
        <ele>2006.2</ele>
        <time>2019-11-24T17:15:25Z</time>
      </trkpt>
      <trkpt lat="42.809480" lon="0.668379">
        <ele>2007.0</ele>
        <time>2019-11-24T17:15:48Z</time>
      </trkpt>
      <trkpt lat="42.809401" lon="0.668453">
        <ele>2010.2</ele>
        <time>2019-11-24T17:16:00Z</time>
      </trkpt>
      <trkpt lat="42.809318" lon="0.668524">
        <ele>2010.2</ele>
        <time>2019-11-24T17:16:11Z</time>
      </trkpt>
      <trkpt lat="42.809230" lon="0.668563">
        <ele>2010.3</ele>
        <time>2019-11-24T17:16:36Z</time>
      </trkpt>
      <trkpt lat="42.809154" lon="0.668580">
        <ele>2009.7</ele>
        <time>2019-11-24T17:17:02Z</time>
      </trkpt>
      <trkpt lat="42.809048" lon="0.668604">
        <ele>2008.8</ele>
        <time>2019-11-24T17:17:17Z</time>
      </trkpt>
      <trkpt lat="42.808954" lon="0.668643">
        <ele>2008.9</ele>
        <time>2019-11-24T17:17:30Z</time>
      </trkpt>
      <trkpt lat="42.808857" lon="0.668697">
        <ele>2007.3</ele>
        <time>2019-11-24T17:17:44Z</time>
      </trkpt>
      <trkpt lat="42.808762" lon="0.668754">
        <ele>2006.5</ele>
        <time>2019-11-24T17:17:57Z</time>
      </trkpt>
      <trkpt lat="42.808679" lon="0.668811">
        <ele>2005.8</ele>
        <time>2019-11-24T17:18:09Z</time>
      </trkpt>
      <trkpt lat="42.808584" lon="0.668824">
        <ele>2005.0</ele>
        <time>2019-11-24T17:18:20Z</time>
      </trkpt>
      <trkpt lat="42.808489" lon="0.668856">
        <ele>2005.0</ele>
        <time>2019-11-24T17:18:31Z</time>
      </trkpt>
      <trkpt lat="42.808400" lon="0.668880">
        <ele>2005.0</ele>
        <time>2019-11-24T17:18:43Z</time>
      </trkpt>
      <trkpt lat="42.808310" lon="0.668890">
        <ele>2005.1</ele>
        <time>2019-11-24T17:18:53Z</time>
      </trkpt>
      <trkpt lat="42.808213" lon="0.668876">
        <ele>2005.1</ele>
        <time>2019-11-24T17:19:05Z</time>
      </trkpt>
      <trkpt lat="42.808123" lon="0.668893">
        <ele>2004.3</ele>
        <time>2019-11-24T17:19:24Z</time>
      </trkpt>
      <trkpt lat="42.808036" lon="0.668934">
        <ele>2003.2</ele>
        <time>2019-11-24T17:19:39Z</time>
      </trkpt>
      <trkpt lat="42.807965" lon="0.668983">
        <ele>2001.8</ele>
        <time>2019-11-24T17:20:01Z</time>
      </trkpt>
      <trkpt lat="42.807889" lon="0.669033">
        <ele>1999.9</ele>
        <time>2019-11-24T17:20:16Z</time>
      </trkpt>
      <trkpt lat="42.807793" lon="0.669052">
        <ele>1998.4</ele>
        <time>2019-11-24T17:20:36Z</time>
      </trkpt>
      <trkpt lat="42.807697" lon="0.669092">
        <ele>1994.2</ele>
        <time>2019-11-24T17:20:58Z</time>
      </trkpt>
      <trkpt lat="42.807612" lon="0.669158">
        <ele>1992.3</ele>
        <time>2019-11-24T17:21:20Z</time>
      </trkpt>
      <trkpt lat="42.807563" lon="0.669256">
        <ele>1991.2</ele>
        <time>2019-11-24T17:21:45Z</time>
      </trkpt>
      <trkpt lat="42.807488" lon="0.669288">
        <ele>1991.8</ele>
        <time>2019-11-24T17:22:26Z</time>
      </trkpt>
      <trkpt lat="42.807403" lon="0.669311">
        <ele>1993.3</ele>
        <time>2019-11-24T17:22:36Z</time>
      </trkpt>
      <trkpt lat="42.807313" lon="0.669333">
        <ele>1995.4</ele>
        <time>2019-11-24T17:22:46Z</time>
      </trkpt>
      <trkpt lat="42.807227" lon="0.669360">
        <ele>1997.9</ele>
        <time>2019-11-24T17:22:58Z</time>
      </trkpt>
      <trkpt lat="42.807136" lon="0.669376">
        <ele>1999.5</ele>
        <time>2019-11-24T17:23:09Z</time>
      </trkpt>
      <trkpt lat="42.807055" lon="0.669431">
        <ele>2002.1</ele>
        <time>2019-11-24T17:23:19Z</time>
      </trkpt>
      <trkpt lat="42.806980" lon="0.669509">
        <ele>2003.7</ele>
        <time>2019-11-24T17:23:28Z</time>
      </trkpt>
      <trkpt lat="42.806906" lon="0.669584">
        <ele>2005.4</ele>
        <time>2019-11-24T17:23:38Z</time>
      </trkpt>
      <trkpt lat="42.806828" lon="0.669656">
        <ele>2007.1</ele>
        <time>2019-11-24T17:23:51Z</time>
      </trkpt>
      <trkpt lat="42.806761" lon="0.669740">
        <ele>2008.7</ele>
        <time>2019-11-24T17:24:04Z</time>
      </trkpt>
      <trkpt lat="42.806687" lon="0.669815">
        <ele>2011.1</ele>
        <time>2019-11-24T17:24:32Z</time>
      </trkpt>
      <trkpt lat="42.806604" lon="0.669889">
        <ele>2011.1</ele>
        <time>2019-11-24T17:24:43Z</time>
      </trkpt>
    </trkseg>
  </trk>
</gpx>

